Time;durP1;ratioP1;P1;durP2;ratioP2;P2;SDS_P1;SDS_P2;PMS_P1;PMS_P2;Temp;Humidity;BMP_temperature;BMP_pressure;BME280_temperature;BME280_humidity;BME280_pressure;Samples;Min_cycle;Max_cycle;Signal;HPM_P1;HPM_P2
2022/03/22 00:00:12;;;;;;;;;19.00;18.50;;;;;14.38;46.91;102103.03;5079211;27;45475;-80
2022/03/22 00:02:37;;;;;;;;;22.50;19.50;;;;;14.17;47.24;102068.31;5079852;27;45400;-81
2022/03/22 00:05:04;;;;;;;;;14.50;13.25;;;;;14.29;47.12;102094.97;5076988;28;45951;-80
2022/03/22 00:07:30;;;;;;;;;17.50;16.50;;;;;14.30;47.23;102101.16;5077868;28;45527;-82
2022/03/22 00:09:56;;;;;;;;;20.00;18.50;;;;;14.26;47.38;102105.53;5077943;27;45375;-81
2022/03/22 00:12:21;;;;;;;;;15.00;15.00;;;;;14.24;47.26;102108.16;5078591;27;45361;-80
2022/03/22 00:14:47;;;;;;;;;16.50;16.50;;;;;14.20;47.23;102102.78;5058282;28;46081;-78
2022/03/22 00:17:12;;;;;;;;;21.00;18.75;;;;;14.18;47.84;102112.47;5072005;28;45370;-81
2022/03/22 00:19:38;;;;;;;;;20.50;20.50;;;;;14.14;47.46;102114.19;5078316;27;45491;-80
2022/03/22 00:22:04;;;;;;;;;20.75;18.00;;;;;14.13;47.72;102115.03;5077535;28;45325;-81
2022/03/22 00:24:30;;;;;;;;;14.00;14.00;;;;;14.01;47.69;102104.28;5077350;27;46273;-81
2022/03/22 00:26:57;;;;;;;;;18.00;16.75;;;;;13.56;47.96;102047.06;5076051;27;46875;-81
2022/03/22 00:29:23;;;;;;;;;19.25;19.25;;;;;13.81;48.06;102079.25;5077997;27;45349;-81
2022/03/22 00:31:50;;;;;;;;;17.00;17.00;;;;;14.03;48.25;102122.84;5077758;27;45389;-82
2022/03/22 00:34:17;;;;;;;;;19.00;18.00;;;;;13.98;48.00;102115.72;5076830;28;47003;-83
2022/03/22 00:36:45;;;;;;;;;19.00;18.25;;;;;13.94;47.45;102116.53;5081030;28;45322;-81
2022/03/22 00:39:11;;;;;;;;;18.75;18.25;;;;;13.62;47.75;102072.75;5077898;27;45451;-81
2022/03/22 00:41:36;;;;;;;;;25.25;20.00;;;;;13.85;47.88;102115.50;5077201;27;45406;-81
2022/03/22 00:44:02;;;;;;;;;20.75;20.75;;;;;13.92;47.95;102131.50;5077625;27;46451;-82
2022/03/22 00:46:27;;;;;;;;;19.00;19.00;;;;;13.91;47.34;102131.50;5077328;27;45518;-85
2022/03/22 00:48:53;;;;;;;;;21.75;20.25;;;;;13.85;47.23;102129.63;5075547;28;45531;-83
2022/03/22 00:51:20;;;;;;;;;18.00;14.00;;;;;13.86;47.47;102131.41;5077600;27;45459;-81
2022/03/22 00:53:47;;;;;;;;;18.25;17.50;;;;;13.71;47.24;102112.63;5077088;27;45921;-83
2022/03/22 00:56:12;;;;;;;;;17.00;17.00;;;;;13.75;47.54;102117.09;5078057;27;45241;-82
2022/03/22 00:58:37;;;;;;;;;19.50;16.75;;;;;13.81;47.43;102130.47;5077938;28;45417;-82
2022/03/22 01:01:03;;;;;;;;;17.50;15.50;;;;;13.45;47.05;102067.19;5078140;27;45652;-82
2022/03/22 01:03:28;;;;;;;;;20.25;18.75;;;;;13.77;47.11;102122.41;5076306;27;45421;-83
2022/03/22 01:05:59;;;;;;;;;22.75;18.00;;;;;13.48;46.75;102074.28;5077610;27;45453;-82
2022/03/22 01:08:24;;;;;;;;;22.50;19.00;;;;;13.68;46.93;102112.59;5077290;27;45393;-83
2022/03/22 01:10:52;;;;;;;;;17.25;15.75;;;;;13.56;47.10;102094.72;5078780;27;45321;-81
2022/03/22 01:13:20;;;;;;;;;22.00;18.00;;;;;13.68;46.63;102123.19;5080063;27;45379;-81
2022/03/22 01:15:46;;;;;;;;;20.25;17.00;;;;;13.66;46.75;102117.84;5077458;27;45348;-83
2022/03/22 01:18:13;;;;;;;;;17.25;16.50;;;;;13.64;47.11;102111.63;5076950;27;45422;-83
2022/03/22 01:20:47;;;;;;;;;19.00;17.75;;;;;13.64;46.35;102129.28;5076821;28;45419;-82
2022/03/22 01:23:12;;;;;;;;;23.50;22.25;;;;;13.61;46.18;102118.66;5076297;27;46409;-82
2022/03/22 01:25:41;;;;;;;;;17.75;17.00;;;;;13.59;46.57;102115.09;5077204;27;45343;-82
2022/03/22 01:28:09;;;;;;;;;28.25;23.00;;;;;13.56;46.85;102115.91;5077467;27;45306;-84
2022/03/22 01:30:35;;;;;;;;;22.25;20.00;;;;;13.17;46.63;102041.06;5077368;27;45484;-84
2022/03/22 01:33:01;;;;;;;;;23.75;22.00;;;;;13.53;46.21;102120.28;5076246;27;45475;-82
2022/03/22 01:35:26;;;;;;;;;21.50;20.00;;;;;13.38;46.03;102097.06;5077679;27;45451;-83
2022/03/22 01:37:55;;;;;;;;;22.25;19.25;;;;;13.46;46.48;102111.31;5077374;27;45858;-83
2022/03/22 01:40:23;;;;;;;;;20.25;17.50;;;;;13.48;46.24;102117.53;5077372;27;45876;-82
2022/03/22 01:42:49;;;;;;;;;21.75;21.75;;;;;13.40;46.70;102103.25;5076797;27;46431;-81
2022/03/22 01:45:15;;;;;;;;;27.00;22.25;;;;;13.46;46.68;102106.03;5078322;27;45494;-83
2022/03/22 01:47:43;;;;;;;;;23.25;18.75;;;;;13.45;46.75;102116.59;5079486;28;45299;-82
2022/03/22 01:50:11;;;;;;;;;19.75;19.75;;;;;13.31;46.14;102092.53;5079274;27;45341;-83
2022/03/22 01:52:46;;;;;;;;;21.25;20.00;;;;;13.36;46.92;102106.72;5078559;27;45271;-83
2022/03/22 01:55:15;;;;;;;;;27.25;21.00;;;;;13.39;46.33;102109.41;5076086;27;45393;-83
2022/03/22 01:57:41;;;;;;;;;24.25;23.25;;;;;13.29;46.90;102105.72;5077779;27;45328;-81
2022/03/22 02:00:13;;;;;;;;;20.50;19.50;;;;;13.32;46.96;102108.44;5077055;27;45448;-81
2022/03/22 02:08:11;;;;;;;;;21.00;16.00;;;;;13.23;46.09;102116.22;5076973;28;45243;-82
2022/03/22 02:10:38;;;;;;;;;22.00;16.50;;;;;13.21;45.85;102109.97;5077178;27;45439;-81
2022/03/22 02:13:03;;;;;;;;;18.50;18.00;;;;;13.17;45.66;102107.22;5076519;27;45491;-82
2022/03/22 02:15:29;;;;;;;;;21.50;20.75;;;;;12.88;46.41;102056.41;5074482;28;45881;-81
2022/03/22 02:17:55;;;;;;;;;16.50;15.50;;;;;13.08;45.47;102100.91;5075929;27;45336;-82
2022/03/22 02:20:21;;;;;;;;;19.50;19.50;;;;;12.93;45.89;102076.78;5077306;27;45361;-82
2022/03/22 02:22:50;;;;;;;;;21.75;19.50;;;;;13.06;45.64;102102.63;5077765;27;46075;-83
2022/03/22 02:25:16;;;;;;;;;24.75;17.00;;;;;12.95;46.13;102088.31;5076962;27;45409;-83
2022/03/22 02:27:44;;;;;;;;;21.75;19.00;;;;;13.03;45.68;102112.28;5076258;27;45537;-81
2022/03/22 02:30:11;;;;;;;;;20.50;20.50;;;;;12.60;46.38;102028.56;5074513;27;45425;-82
2022/03/22 02:32:37;;;;;;;;;23.00;22.25;;;;;12.93;46.43;102092.66;5079335;27;45386;-82
2022/03/22 02:35:04;;;;;;;;;23.50;20.75;;;;;12.72;45.97;102065.78;5078925;27;45343;-80
2022/03/22 02:37:30;;;;;;;;;28.25;25.25;;;;;12.68;45.85;102056.94;5079491;28;45332;-82
2022/03/22 02:39:55;;;;;;;;;19.75;19.75;;;;;12.93;45.64;102110.28;5079267;27;45465;-82
2022/03/22 02:42:21;;;;;;;;;20.25;18.75;;;;;12.78;45.57;102081.78;5079523;27;46380;-83
2022/03/22 02:44:46;;;;;;;;;18.75;17.75;;;;;12.88;46.02;102102.28;5079756;27;45341;-83
2022/03/22 02:47:12;;;;;;;;;24.50;21.75;;;;;12.87;46.37;102102.25;5078883;27;45719;-83
2022/03/22 02:49:37;;;;;;;;;26.75;23.50;;;;;12.70;46.55;102086.91;5079232;27;45357;-83
2022/03/22 02:52:03;;;;;;;;;18.75;18.50;;;;;12.81;46.36;102100.34;5079223;28;46022;-82
2022/03/22 02:54:28;;;;;;;;;23.00;20.75;;;;;12.82;46.48;102103.03;5079772;27;45470;-84
2022/03/22 02:56:54;;;;;;;;;24.75;20.25;;;;;12.74;46.46;102098.44;5078824;27;45478;-83
2022/03/22 02:59:19;;;;;;;;;19.25;19.25;;;;;12.70;46.51;102091.31;5081110;27;45333;-82
2022/03/22 03:01:44;;;;;;;;;21.00;21.00;;;;;12.79;45.92;102117.94;5079256;28;45709;-83
2022/03/22 03:04:10;;;;;;;;;24.25;24.25;;;;;12.76;46.51;102104.69;5079423;27;45255;-83
2022/03/22 03:06:36;;;;;;;;;24.75;20.75;;;;;12.74;46.26;102109.00;5079352;27;45235;-81
2022/03/22 03:09:01;;;;;;;;;27.75;23.50;;;;;12.71;46.04;102114.25;5078829;27;45419;-83
2022/03/22 03:11:27;;;;;;;;;27.75;26.75;;;;;12.55;46.54;102091.88;5078818;27;46169;-83
2022/03/22 03:16:39;;;;;;;;;22.25;16.50;;;;;12.31;45.90;102059.66;5059212;28;45252;-83
2022/03/22 03:19:04;;;;;;;;;25.50;23.75;;;;;12.52;46.65;102113.88;5072312;27;45494;-83
2022/03/22 03:21:30;;;;;;;;;23.00;22.50;;;;;12.54;46.26;102124.47;5078495;28;45632;-82
2022/03/22 03:23:55;;;;;;;;;21.25;19.50;;;;;12.52;46.61;102118.25;5086423;27;45542;-81
2022/03/22 03:26:21;;;;;;;;;22.25;20.75;;;;;12.44;46.71;102111.91;5079394;27;45410;-82
2022/03/22 03:28:46;;;;;;;;;25.75;21.50;;;;;12.48;46.76;102119.97;5078128;27;45511;-81
2022/03/22 03:31:12;;;;;;;;;19.50;19.00;;;;;11.94;46.95;102028.06;5078358;27;45352;-83
2022/03/22 03:33:37;;;;;;;;;33.00;25.00;;;;;12.35;47.38;102104.69;5078980;27;46073;-82
2022/03/22 03:36:03;;;;;;;;;22.50;20.75;;;;;12.30;46.76;102100.16;5081245;27;45779;-82
2022/03/22 03:38:29;;;;;;;;;21.75;20.75;;;;;12.45;46.93;102126.91;5079513;27;45218;-82
2022/03/22 03:43:38;;;;;;;;;23.00;22.50;;;;;12.36;47.42;102119.66;5078422;27;45448;-81
2022/03/22 03:48:47;;;;;;;;;25.75;24.25;;;;;12.34;47.04;102120.50;5079711;28;45494;-83
2022/03/22 03:51:13;;;;;;;;;23.00;22.50;;;;;12.28;46.40;102121.25;5078648;27;46110;-82
2022/03/22 03:53:38;;;;;;;;;27.25;24.25;;;;;12.29;47.25;102136.28;5079499;27;45385;-82
2022/03/22 03:56:04;;;;;;;;;26.25;23.50;;;;;12.10;47.28;102111.19;5080095;27;45424;-82
2022/03/22 03:58:30;;;;;;;;;19.25;19.25;;;;;12.25;47.46;102134.41;5080067;27;45848;-80
2022/03/22 04:00:55;;;;;;;;;23.00;20.00;;;;;11.61;47.76;102030.75;5077259;27;45897;-82
2022/03/22 04:03:21;;;;;;;;;25.00;19.00;;;;;12.20;47.61;102141.34;5078927;27;45467;-83
2022/03/22 04:05:46;;;;;;;;;17.00;17.00;;;;;12.17;47.82;102142.13;5077847;27;45318;-82
2022/03/22 04:08:11;;;;;;;;;23.50;21.50;;;;;12.03;47.62;102126.84;5079020;27;45313;-83
2022/03/22 04:10:37;;;;;;;;;22.75;19.75;;;;;12.12;47.38;102142.91;5080612;27;46181;-82
2022/03/22 04:13:02;;;;;;;;;29.00;24.75;;;;;12.10;47.65;102147.22;5078509;28;45229;-82
2022/03/22 04:15:29;;;;;;;;;24.25;22.25;;;;;11.98;47.26;102137.28;5077226;27;45537;-82
2022/03/22 04:17:59;;;;;;;;;22.75;22.50;;;;;11.86;47.80;102123.78;5078508;27;45501;-83
2022/03/22 04:20:25;;;;;;;;;24.50;23.75;;;;;11.98;47.78;102147.84;5078036;28;45516;-84
2022/03/22 04:22:51;;;;;;;;;26.25;23.00;;;;;11.91;48.41;102145.91;5078277;27;45226;-83
2022/03/22 04:25:17;;;;;;;;;24.75;20.00;;;;;11.95;48.34;102148.69;5080079;27;45402;-84
2022/03/22 04:33:10;;;;;;;;;28.00;24.50;;;;;11.82;49.13;102156.25;5077309;27;45469;-82
2022/03/22 04:35:37;;;;;;;;;24.50;22.00;;;;;11.78;49.14;102160.53;5077573;27;45306;-82
2022/03/22 04:38:02;;;;;;;;;22.75;20.75;;;;;11.42;49.06;102098.03;5078237;27;45244;-82
2022/03/22 04:40:28;;;;;;;;;28.75;27.50;;;;;11.43;48.70;102106.84;5077867;27;45323;-83
2022/03/22 04:42:54;;;;;;;;;26.75;24.25;;;;;11.71;49.07;102166.50;5077494;27;45338;-83
2022/03/22 04:45:19;;;;;;;;;27.75;25.75;;;;;11.63;49.57;102146.94;5079289;28;45357;-82
2022/03/22 04:47:45;;;;;;;;;23.25;21.50;;;;;11.49;49.16;102128.13;5079885;27;45517;-83
2022/03/22 04:50:13;;;;;;;;;29.50;24.25;;;;;11.59;48.56;102148.59;5077831;27;47396;-83
2022/03/22 04:58:07;;;;;;;;;8.75;6.50;;;;;11.57;49.81;102167.91;5077636;28;45469;-83
2022/03/22 05:00:35;;;;;;;;;29.00;27.50;;;;;11.50;49.48;102161.56;5073537;28;46560;-84
2022/03/22 05:03:03;;;;;;;;;20.50;18.50;;;;;11.49;49.29;102165.06;5075563;27;45526;-82
2022/03/22 05:08:13;;;;;;;;;28.50;24.25;;;;;11.41;49.63;102172.75;5077152;27;45539;-82
2022/03/22 05:10:38;;;;;;;;;25.75;23.25;;;;;11.19;49.42;102135.22;5076349;27;46279;-83
2022/03/22 05:13:04;;;;;;;;;27.75;26.00;;;;;11.38;49.76;102180.59;5077507;27;45794;-83
2022/03/22 05:15:31;;;;;;;;;34.50;27.75;;;;;11.36;49.65;102181.44;5077826;27;45527;-83
2022/03/22 05:17:56;;;;;;;;;28.00;26.75;;;;;11.33;49.65;102169.03;5077331;27;45391;-82
2022/03/22 05:20:22;;;;;;;;;26.00;23.75;;;;;11.31;49.28;102176.00;5077977;27;45467;-85
2022/03/22 05:22:48;;;;;;;;;26.00;23.50;;;;;11.27;49.14;102176.78;5081633;27;45644;-82
2022/03/22 05:25:14;;;;;;;;;26.50;25.75;;;;;11.25;50.05;102177.56;5077627;27;45421;-83
2022/03/22 05:27:39;;;;;;;;;26.00;22.75;;;;;11.25;49.70;102189.00;5076633;27;45367;-84
2022/03/22 05:30:06;;;;;;;;;32.00;30.25;;;;;11.23;49.85;102179.28;5077066;27;45274;-82
2022/03/22 05:32:31;;;;;;;;;26.75;26.50;;;;;11.13;50.26;102189.56;5075379;27;45495;-81
2022/03/22 05:34:58;;;;;;;;;28.75;24.75;;;;;11.05;49.80;102164.72;5075789;27;45812;-83
2022/03/22 05:37:23;;;;;;;;;33.25;27.25;;;;;11.09;50.20;102186.81;5076857;27;45465;-83
2022/03/22 05:39:49;;;;;;;;;25.25;24.75;;;;;10.71;49.54;102118.06;5075935;27;45455;-82
2022/03/22 05:42:14;;;;;;;;;24.00;24.00;;;;;11.12;50.30;102198.34;5075888;27;45535;-82
2022/03/22 05:44:40;;;;;;;;;27.25;26.25;;;;;11.10;50.08;102201.78;5077509;27;45472;-85
2022/03/22 05:47:06;;;;;;;;;35.25;29.75;;;;;10.70;49.96;102145.28;5076047;28;45453;-83
2022/03/22 05:49:36;;;;;;;;;35.50;28.00;;;;;11.05;50.17;102198.13;5077064;27;46602;-83
2022/03/22 05:52:03;;;;;;;;;28.00;25.00;;;;;10.91;50.13;102184.56;5076969;27;45361;-83
2022/03/22 05:54:28;;;;;;;;;34.00;24.25;;;;;11.03;49.57;102205.09;5076018;28;45450;-83
2022/03/22 05:56:54;;;;;;;;;30.00;27.50;;;;;10.99;50.47;102200.59;5082115;27;45515;-83
2022/03/22 05:59:19;;;;;;;;;30.00;29.25;;;;;11.02;49.95;102209.47;5077777;27;45508;-84
2022/03/22 06:01:44;;;;;;;;;30.25;24.75;;;;;10.97;50.03;102203.16;5076411;27;45347;-83
2022/03/22 06:04:11;;;;;;;;;25.50;23.75;;;;;10.96;49.84;102205.75;5076308;27;45931;-81
2022/03/22 06:06:37;;;;;;;;;31.25;27.75;;;;;11.04;50.02;102214.78;5077988;27;45525;-81
2022/03/22 06:09:02;;;;;;;;;26.25;24.50;;;;;11.02;49.94;102220.03;5081599;27;45489;-81
2022/03/22 06:11:33;;;;;;;;;33.50;28.00;;;;;11.04;50.30;102242.06;5080418;27;45466;-82
2022/03/22 06:13:58;;;;;;;;;28.25;27.75;;;;;11.04;49.98;102242.06;5080817;27;45467;-82
2022/03/22 06:16:24;;;;;;;;;30.50;25.00;;;;;10.95;49.37;102222.44;5071690;28;45523;-81
2022/03/22 06:18:50;;;;;;;;;32.25;29.75;;;;;11.10;49.62;102238.72;5080475;27;45453;-78
2022/03/22 06:21:15;;;;;;;;;30.25;28.00;;;;;11.07;49.43;102242.16;5077234;28;45413;-83
2022/03/22 06:23:44;;;;;;;;;32.50;27.25;;;;;11.06;50.02;102239.47;5076507;27;45435;-79
2022/03/22 06:26:09;;;;;;;;;31.75;28.75;;;;;11.13;49.71;102250.25;5080120;28;45414;-79
2022/03/22 06:28:35;;;;;;;;;25.00;24.25;;;;;11.05;49.17;102233.28;5082485;27;45341;-83
2022/03/22 06:31:03;;;;;;;;;28.25;25.50;;;;;11.13;48.68;102244.06;5080609;27;45350;-80
2022/03/22 06:33:32;;;;;;;;;31.25;28.00;;;;;11.13;49.04;102241.44;5086252;27;45282;-80
2022/03/22 06:35:57;;;;;;;;;30.50;29.00;;;;;11.00;48.79;102220.84;5078040;27;45584;-81
2022/03/22 06:38:25;;;;;;;;;34.50;27.25;;;;;11.29;49.15;102258.59;5078680;27;46568;-87
2022/03/22 06:40:51;;;;;;;;;26.50;25.50;;;;;11.29;48.52;102253.34;5065363;28;45529;-86
2022/03/22 06:43:18;;;;;;;;;35.25;26.75;;;;;11.30;48.64;102256.00;5068243;27;46375;-84
2022/03/22 06:45:45;;;;;;;;;33.25;30.75;;;;;11.33;48.39;102268.38;5066255;28;45508;-83
2022/03/22 06:48:11;;;;;;;;;37.75;31.00;;;;;11.34;48.86;102260.50;5077732;27;45527;-79
2022/03/22 06:50:38;;;;;;;;;29.75;29.75;;;;;11.38;48.12;102266.78;5078091;27;45532;-80
2022/03/22 06:53:05;;;;;;;;;30.00;24.75;;;;;11.43;48.22;102265.16;5079381;28;45461;-84
2022/03/22 06:55:32;;;;;;;;;33.25;31.00;;;;;11.50;47.82;102263.59;5079771;27;45295;-80
2022/03/22 06:57:58;;;;;;;;;21.00;21.00;;;;;11.55;47.85;102273.44;5077891;27;46095;-80
2022/03/22 07:00:25;;;;;;;;;29.75;24.75;;;;;11.48;47.87;102246.81;5078263;27;45357;-83
2022/03/22 07:02:51;;;;;;;;;27.50;26.50;;;;;11.60;48.10;102269.16;5079398;28;45436;-86
2022/03/22 07:05:16;;;;;;;;;38.75;32.50;;;;;11.61;47.70;102268.31;5081100;27;45493;-80
2022/03/22 07:07:42;;;;;;;;;30.00;30.00;;;;;11.57;47.71;102260.28;5080255;28;47098;-81
2022/03/22 07:10:15;;;;;;;;;33.25;30.50;;;;;11.55;46.76;102256.72;5078989;27;45433;-82
2022/03/22 07:12:52;;;;;;;;;30.00;28.00;;;;;11.68;46.53;102279.94;5078646;27;45400;-82
2022/03/22 07:15:23;;;;;;;;;32.50;28.75;;;;;11.39;46.93;102216.69;5062849;28;45374;-84
2022/03/22 07:17:49;;;;;;;;;29.75;27.50;;;;;11.70;46.50;102271.19;5077602;27;45420;-82
2022/03/22 07:20:15;;;;;;;;;39.50;33.25;;;;;11.74;47.02;102271.31;5077751;27;45502;-80
2022/03/22 07:22:41;;;;;;;;;34.50;32.50;;;;;11.54;46.90;102226.78;5077564;27;46120;-81
2022/03/22 07:25:08;;;;;;;;;41.75;35.00;;;;;11.80;46.45;102250.38;5077691;27;45407;-82
2022/03/22 07:27:42;;;;;;;;;18.00;17.00;;;;;12.03;46.77;102272.09;5076247;27;45973;-82
2022/03/22 07:30:12;;;;;;;;;32.00;32.00;;;;;12.07;46.12;102264.28;5077562;27;45271;-79
2022/03/22 07:32:39;;;;;;;;;31.50;30.50;;;;;12.22;45.57;102283.19;5078206;28;45464;-82
2022/03/22 07:35:06;;;;;;;;;29.00;27.50;;;;;11.91;45.45;102204.94;5080104;27;45447;-86
2022/03/22 07:37:32;;;;;;;;;24.00;20.50;;;;;12.37;45.18;102281.75;5082811;27;46041;-88
2022/03/22 07:39:58;;;;;;;;;37.50;32.25;;;;;12.01;44.91;102229.81;5091804;27;45481;-85
2022/03/22 07:42:28;;;;;;;;;33.00;29.50;;;;;12.42;45.68;102264.28;5077534;27;45469;-80
2022/03/22 07:44:58;;;;;;;;;37.50;32.25;;;;;12.61;44.51;102286.75;5081611;27;45448;-81
2022/03/22 07:47:24;;;;;;;;;35.50;32.50;;;;;12.71;44.69;102281.72;5078288;28;46063;-81
2022/03/22 07:55:19;;;;;;;;;33.00;31.50;;;;;12.80;44.22;102262.53;5078794;28;45496;-80
2022/03/22 07:57:45;;;;;;;;;41.25;31.00;;;;;12.99;43.59;102292.94;5076373;27;45535;-78
2022/03/22 08:00:11;;;;;;;;;31.25;31.00;;;;;13.14;43.60;102293.28;5077952;27;45471;-82
2022/03/22 08:02:56;;;;;;;;;42.50;30.00;;;;;13.22;43.89;102283.78;5076206;27;45539;-81
2022/03/22 08:05:22;;;;;;;;;29.50;26.50;;;;;13.32;42.76;102285.78;5076896;27;45478;-81
2022/03/22 08:07:48;;;;;;;;;28.50;28.50;;;;;13.38;42.64;102282.34;5078529;27;46050;-84
2022/03/22 08:10:14;;;;;;;;;25.50;24.50;;;;;13.35;42.67;102269.94;5081650;27;45629;-93
2022/03/22 08:12:41;;;;;;;;;32.25;31.25;;;;;13.32;41.68;102299.00;5078938;27;45409;-84
2022/03/22 08:15:08;;;;;;;;;32.00;28.75;;;;;13.26;42.25;102295.31;5081813;27;45388;-83
2022/03/22 08:17:37;;;;;;;;;35.50;30.50;;;;;13.38;41.52;102292.94;5087538;27;45278;-83
2022/03/22 08:20:03;;;;;;;;;37.25;34.25;;;;;13.16;41.52;102240.38;5090115;28;45253;-82
2022/03/22 08:22:29;;;;;;;;;27.00;26.00;;;;;13.36;40.39;102249.66;5081305;27;45215;-84
2022/03/22 08:24:54;;;;;;;;;30.25;29.75;;;;;13.59;40.16;102280.16;5083123;27;45266;-86
2022/03/22 08:27:20;;;;;;;;;30.25;28.50;;;;;13.74;40.22;102299.81;5079866;27;45564;-82
2022/03/22 08:29:45;;;;;;;;;30.25;28.25;;;;;13.83;40.19;102302.66;5082103;27;45377;-82
2022/03/22 08:32:11;;;;;;;;;36.00;33.25;;;;;13.80;39.71;102266.41;5082572;27;45293;-83
2022/03/22 08:34:36;;;;;;;;;32.50;29.50;;;;;14.16;39.09;102294.44;5083170;27;45427;-83
2022/03/22 08:37:03;;;;;;;;;34.50;30.50;;;;;14.15;38.28;102275.00;5082476;28;46119;-85
2022/03/22 08:39:28;;;;;;;;;33.50;30.00;;;;;14.24;37.16;102277.81;5083676;27;45336;-84
2022/03/22 08:41:54;;;;;;;;;31.00;26.75;;;;;14.34;36.64;102276.19;5080822;28;45553;-83
2022/03/22 08:44:20;;;;;;;;;28.75;28.50;;;;;14.56;36.08;102271.25;5083397;27;45302;-84
2022/03/22 08:46:46;;;;;;;;;28.25;24.25;;;;;14.75;35.04;102300.75;5081035;27;45589;-89
2022/03/22 08:49:12;;;;;;;;;32.50;28.50;;;;;14.85;34.08;102292.94;5083821;27;45458;-89
2022/03/22 08:51:37;;;;;;;;;27.75;26.00;;;;;14.97;33.25;102291.31;5082728;27;45274;-89
2022/03/22 08:54:06;;;;;;;;;29.00;25.50;;;;;15.28;33.64;102295.31;5089749;27;45238;-83
2022/03/22 08:56:32;;;;;;;;;29.75;27.50;;;;;15.65;31.85;102295.78;5099302;27;45631;-91
2022/03/22 08:58:57;;;;;;;;;23.50;21.00;;;;;16.32;30.03;102284.94;5083585;28;45493;-92
2022/03/22 09:01:30;;;;;;;;;27.75;25.25;;;;;17.08;29.34;102285.50;5081294;27;45263;-93
2022/03/22 09:06:39;;;;;;;;;26.75;20.75;;;;;23.08;22.05;102266.97;5082582;27;45863;-91
2022/03/22 09:09:05;;;;;;;;;22.25;22.00;;;;;25.68;18.94;102277.44;5081456;28;45333;-88
2022/03/22 09:11:33;;;;;;;;;22.25;20.75;;;;;27.75;16.98;102283.72;5081558;27;45390;-92
2022/03/22 09:13:59;;;;;;;;;21.00;20.67;;;;;28.94;15.78;102272.38;5081162;27;45536;-89
2022/03/22 09:16:26;;;;;;;;;21.67;20.00;;;;;29.84;14.18;102283.56;5080483;27;46609;-85
2022/03/22 09:18:52;;;;;;;;;23.00;20.67;;;;;30.75;13.14;102288.94;5082047;27;45222;-91
2022/03/22 09:21:17;;;;;;;;;18.33;16.33;;;;;31.65;12.25;102281.31;5081756;27;45262;-89
2022/03/22 09:23:44;;;;;;;;;15.33;14.67;;;;;31.55;12.06;102248.25;5083140;27;44704;-88
2022/03/22 09:26:10;;;;;;;;;19.33;15.67;;;;;31.88;11.32;102247.31;5082821;27;45337;-85
2022/03/22 09:28:36;;;;;;;;;20.00;18.00;;;;;32.40;12.52;102271.53;5085647;27;44849;-88
2022/03/22 09:31:02;;;;;;;;;19.67;18.00;;;;;32.97;11.02;102296.25;5094036;27;45301;-87
2022/03/22 09:33:28;;;;;;;;;19.67;19.67;;;;;32.51;11.66;102289.00;5092773;28;44826;-87
2022/03/22 09:35:57;;;;;;;;;20.75;18.50;;;;;32.59;11.69;102286.69;5081679;27;46261;-87
2022/03/22 09:38:27;;;;;;;;;17.00;17.00;;;;;32.60;11.81;102276.66;5081640;28;45231;-90
2022/03/22 09:40:53;;;;;;;;;19.00;17.75;;;;;33.66;10.75;102287.25;5084041;27;44774;-87
2022/03/22 09:43:20;;;;;;;;;14.75;13.75;;;;;32.54;10.98;102286.06;5082344;27;45443;-90
2022/03/22 09:45:46;;;;;;;;;17.25;15.75;;;;;31.65;11.52;102256.78;5083360;27;45716;-92
2022/03/22 09:48:11;;;;;;;;;17.75;17.75;;;;;32.67;10.97;102260.75;5085244;27;45242;-92
2022/03/22 09:53:21;;;;;;;;;15.25;13.50;;;;;32.02;10.93;102291.88;5089784;27;45258;-87
2022/03/22 09:55:46;;;;;;;;;15.00;15.00;;;;;31.52;10.60;102262.03;5090112;27;45255;-93
2022/03/22 09:58:13;;;;;;;;;16.75;16.75;;;;;31.24;11.04;102287.22;5096161;27;44574;-83
2022/03/22 10:00:38;;;;;;;;;16.75;14.75;;;;;30.61;11.84;102260.56;5095756;27;45371;-83
2022/03/22 10:03:04;;;;;;;;;15.50;15.50;;;;;31.83;11.23;102274.84;5091088;27;44804;-86
2022/03/22 10:05:30;;;;;;;;;17.50;16.50;;;;;32.94;11.00;102211.78;5094588;27;45361;-82
2022/03/22 10:08:08;;;;;;;;;19.50;16.75;;;;;33.63;10.23;102255.56;5092047;27;45310;-84
2022/03/22 10:10:34;;;;;;;;;11.60;11.60;;;;;33.15;9.61;102265.06;5082636;27;45247;-82
2022/03/22 10:13:02;;;;;;;;;17.50;16.50;;;;;33.56;9.85;102256.94;5083180;27;45299;-82
2022/03/22 10:15:36;;;;;;;;;15.00;13.60;;;;;34.11;10.03;102271.56;5083703;27;45227;-84
2022/03/22 10:18:10;;;;;;;;;18.60;15.00;;;;;34.22;9.50;102263.47;5081985;27;45250;-85
2022/03/22 10:20:38;;;;;;;;;18.20;17.00;;;;;34.23;10.05;102279.78;5078339;28;45336;-87
2022/03/22 10:23:05;;;;;;;;;20.00;18.00;;;;;34.31;9.40;102254.63;5079756;27;45255;-85
2022/03/22 10:25:33;;;;;;;;;20.20;18.60;;;;;34.77;9.32;102257.81;5078861;27;45541;-87
2022/03/22 10:28:04;;;;;;;;;21.80;20.00;;;;;34.86;9.17;102248.94;5080131;28;45436;-82
2022/03/22 10:30:31;;;;;;;;;19.20;17.40;;;;;35.17;9.00;102262.31;5080347;27;45168;-84
2022/03/22 10:32:57;;;;;;;;;16.60;16.40;;;;;34.79;8.79;102264.03;5080555;27;45322;-83
2022/03/22 10:35:26;;;;;;;;;16.40;15.60;;;;;33.43;9.54;102270.53;5080911;28;47085;-85
2022/03/22 10:38:00;;;;;;;;;16.80;16.80;;;;;33.39;9.51;102249.81;5081412;27;45259;-87
2022/03/22 10:40:30;;;;;;;;;11.20;10.00;;;;;33.76;9.30;102258.34;5081655;27;45324;-91
2022/03/22 10:43:02;;;;;;;;;19.75;16.50;;;;;33.80;9.28;102264.50;5101673;27;44883;-88
2022/03/22 10:45:41;;;;;;;;;19.00;17.40;;;;;32.97;9.16;102258.91;5085548;28;45693;-89
2022/03/22 10:48:07;;;;;;;;;19.00;17.60;;;;;33.61;9.10;102246.59;5083607;27;45482;-85
2022/03/22 10:50:37;;;;;;;;;23.25;22.00;;;;;33.97;9.78;102259.69;5085117;27;45410;-91
2022/03/22 10:53:04;;;;;;;;;19.00;17.75;;;;;34.05;9.29;102253.69;5088866;27;45429;-90
2022/03/22 10:55:30;;;;;;;;;17.40;14.20;;;;;32.85;10.22;102251.44;5089036;27;45306;-89
2022/03/22 10:58:01;;;;;;;;;14.40;14.40;;;;;30.79;11.12;102252.44;5087674;27;45360;-88
2022/03/22 11:00:28;;;;;;;;;15.50;15.50;;;;;30.09;11.48;102251.53;5088384;28;45221;-90
2022/03/22 11:02:56;;;;;;;;;18.25;18.00;;;;;28.26;12.49;102198.50;5087709;27;45357;-88
2022/03/22 11:05:23;;;;;;;;;17.50;17.25;;;;;26.45;13.81;102247.06;5087410;27;45274;-89
2022/03/22 11:07:51;;;;;;;;;18.25;16.50;;;;;25.10;14.43;102244.13;5085084;28;45406;-90
2022/03/22 11:10:30;;;;;;;;;22.75;17.75;;;;;24.26;15.21;102249.97;5087507;27;45204;-91
2022/03/22 11:13:00;;;;;;;;;17.00;17.00;;;;;22.82;16.11;102184.19;5081752;27;45416;-87
2022/03/22 11:15:39;;;;;;;;;19.67;15.00;;;;;22.10;17.18;102234.75;5080882;27;46318;-85
2022/03/22 11:18:07;;;;;;;;;19.00;18.33;;;;;20.80;17.67;102139.16;5090752;27;45428;-85
2022/03/22 11:20:33;;;;;;;;;20.67;19.33;;;;;20.86;18.05;102191.78;5085347;27;45467;-85
2022/03/22 11:23:00;;;;;;;;;20.67;18.67;;;;;20.90;18.28;102231.91;5082503;27;45340;-86
2022/03/22 11:25:34;;;;;;;;;19.67;18.00;;;;;20.74;18.09;102215.09;5081341;27;45455;-87
2022/03/22 11:28:13;;;;;;;;;17.33;16.00;;;;;20.59;18.40;102214.41;5080490;28;45512;-87
2022/03/22 11:30:40;;;;;;;;;19.33;19.33;;;;;20.63;18.71;102230.41;5079838;27;45203;-85
2022/03/22 11:36:00;;;;;;;;;25.67;23.00;;;;;20.42;19.42;102235.94;5081762;27;45692;-87
2022/03/22 11:38:41;;;;;;;;;21.33;18.67;;;;;20.10;19.88;102236.22;5086905;27;45272;-88
2022/03/22 11:44:40;;;;;;;;;20.33;20.00;;;;;20.00;20.25;102205.09;5003805;28;45452;-83
2022/03/22 11:47:12;;;;;;;;;17.67;16.33;;;;;19.87;20.57;102210.56;4998870;28;45907;-87
2022/03/22 11:50:03;;;;;;;;;21.33;21.00;;;;;19.93;20.66;102220.31;4999308;28;45471;-82
2022/03/22 11:52:40;;;;;;;;;25.00;22.67;;;;;19.83;20.83;102213.28;4996859;28;45262;-83